createdAt,value
2023-04-30T00:00:17.163Z,9.50
2023-04-30T00:00:48.732Z,10.07
2023-04-30T00:01:20.494Z,9.38
2023-04-30T00:01:51.926Z,9.60
2023-04-30T00:02:23.605Z,9.15
2023-04-30T00:02:55.513Z,10.52
2023-04-30T00:03:27.188Z,10.05
2023-04-30T00:03:58.680Z,10.82
2023-04-30T00:04:30.148Z,10.07
2023-04-30T00:05:01.711Z,10.10
2023-04-30T00:05:33.324Z,10.65
2023-04-30T00:06:04.731Z,9.18
2023-04-30T00:06:36.137Z,9.80
2023-04-30T00:07:08.519Z,9.30
2023-04-30T00:07:42.343Z,8.88
2023-04-30T00:08:13.859Z,9.63
2023-04-30T00:08:45.646Z,10.50
2023-04-30T00:09:17.567Z,9.70
2023-04-30T00:09:50.241Z,9.15
2023-04-30T00:10:21.690Z,10.30
2023-04-30T00:10:53.099Z,9.32
2023-04-30T00:11:25.922Z,9.95
2023-04-30T00:11:57.381Z,9.35
2023-04-30T00:12:28.844Z,10.17
2023-04-30T00:13:00.293Z,9.85
2023-04-30T00:13:31.670Z,9.65
2023-04-30T00:14:03.397Z,9.95
2023-04-30T00:14:35.011Z,9.95
2023-04-30T00:15:07.047Z,9.35
2023-04-30T00:15:38.522Z,9.55
2023-04-30T00:16:10.827Z,11.07
2023-04-30T00:16:42.413Z,10.35
2023-04-30T00:17:13.927Z,9.57
2023-04-30T00:17:46.033Z,9.43
2023-04-30T00:18:17.452Z,9.98
2023-04-30T00:18:48.894Z,10.82
2023-04-30T00:19:20.574Z,10.45
2023-04-30T00:19:52.750Z,10.63
2023-04-30T00:20:24.479Z,10.00
2023-04-30T00:20:55.954Z,9.95
2023-04-30T00:21:27.761Z,10.15
2023-04-30T00:22:01.425Z,10.65
2023-04-30T00:22:33.641Z,9.45
2023-04-30T00:23:05.115Z,10.00
2023-04-30T00:23:36.563Z,10.43
2023-04-30T00:24:07.987Z,10.50
2023-04-30T00:24:39.671Z,10.30
2023-04-30T00:25:11.330Z,10.10
2023-04-30T00:25:42.953Z,10.63
2023-04-30T00:26:14.565Z,9.88
2023-04-30T00:26:46.003Z,9.93
2023-04-30T00:27:17.401Z,9.98
2023-04-30T00:27:49.100Z,10.18
2023-04-30T00:28:20.585Z,10.57
2023-04-30T00:28:52.076Z,11.02
2023-04-30T00:29:23.510Z,9.65
2023-04-30T00:29:55.558Z,10.60
2023-04-30T00:30:27.183Z,10.75
2023-04-30T00:30:58.739Z,9.93
2023-04-30T00:31:30.325Z,10.48
2023-04-30T00:32:01.912Z,10.23
2023-04-30T00:32:33.419Z,10.38
2023-04-30T00:33:05.609Z,9.70
2023-04-30T00:33:37.049Z,9.03
2023-04-30T00:34:08.523Z,10.23
2023-04-30T00:34:39.979Z,10.57
2023-04-30T00:35:11.762Z,9.73
2023-04-30T00:35:43.296Z,9.63
2023-04-30T00:36:14.654Z,10.18
2023-04-30T00:36:46.065Z,10.70
2023-04-30T00:37:17.633Z,9.98
2023-04-30T00:37:49.089Z,11.10
2023-04-30T00:38:20.466Z,11.35
2023-04-30T00:38:51.835Z,11.17
2023-04-30T00:39:23.319Z,11.18
2023-04-30T00:39:54.851Z,10.77
2023-04-30T00:40:26.974Z,11.40
2023-04-30T00:40:58.812Z,10.82
2023-04-30T00:41:30.943Z,10.65
2023-04-30T00:42:02.892Z,10.65
2023-04-30T00:42:34.300Z,11.30
2023-04-30T00:43:06.113Z,11.25
2023-04-30T00:43:37.507Z,11.80
2023-04-30T00:44:08.993Z,10.93
2023-04-30T00:44:40.611Z,11.40
2023-04-30T00:45:12.050Z,10.77
2023-04-30T00:45:43.532Z,10.13
2023-04-30T00:46:15.001Z,9.63
2023-04-30T00:46:46.438Z,9.88
2023-04-30T00:47:17.963Z,9.13
2023-04-30T00:47:49.857Z,9.73
2023-04-30T00:48:21.736Z,10.60
2023-04-30T00:48:53.332Z,11.10
2023-04-30T00:49:25.278Z,10.50
2023-04-30T00:49:56.956Z,11.07
2023-04-30T00:50:29.350Z,10.07
2023-04-30T00:51:04.171Z,10.27
2023-04-30T00:51:36.595Z,10.50
2023-04-30T00:52:08.118Z,10.68
2023-04-30T00:52:39.841Z,10.77
2023-04-30T00:53:12.613Z,9.38
2023-04-30T00:53:44.403Z,10.68
2023-04-30T00:54:16.548Z,9.38
2023-04-30T00:54:48.285Z,10.17
2023-04-30T00:55:20.091Z,9.05
2023-04-30T00:55:51.832Z,9.85
2023-04-30T00:56:23.322Z,10.75
2023-04-30T00:56:55.035Z,9.30
2023-04-30T00:57:26.752Z,10.65
2023-04-30T00:57:59.391Z,10.95
2023-04-30T00:58:30.900Z,9.90
2023-04-30T00:59:02.275Z,10.30
2023-04-30T00:59:33.923Z,10.30
2023-04-30T01:00:06.324Z,9.17
2023-04-30T01:00:38.045Z,9.68
2023-04-30T01:01:09.817Z,9.52
2023-04-30T01:01:42.188Z,10.38
2023-04-30T01:02:13.702Z,9.55
2023-04-30T01:02:45.302Z,9.25
2023-04-30T01:03:16.858Z,10.65
2023-04-30T01:03:48.841Z,10.63
2023-04-30T01:04:20.642Z,10.13
2023-04-30T01:04:52.282Z,9.45
2023-04-30T01:05:23.750Z,9.87
2023-04-30T01:05:55.219Z,9.60
2023-04-30T01:06:27.252Z,10.32
2023-04-30T01:07:02.054Z,9.73
2023-04-30T01:07:35.234Z,10.32
2023-04-30T01:08:07.277Z,10.50
2023-04-30T01:08:38.793Z,10.27
2023-04-30T01:09:10.498Z,9.98
2023-04-30T01:09:42.157Z,10.50
2023-04-30T01:10:14.505Z,9.80
2023-04-30T01:10:52.275Z,10.37
2023-04-30T01:11:47.238Z,9.57
2023-04-30T01:12:26.187Z,8.93
2023-04-30T01:13:15.027Z,9.23
2023-04-30T01:14:08.289Z,9.85
2023-04-30T01:14:53.657Z,9.15
2023-04-30T01:15:36.194Z,9.55
2023-04-30T01:16:18.424Z,10.10
2023-04-30T01:17:21.704Z,9.60
2023-04-30T01:18:12.784Z,9.35
2023-04-30T01:18:51.864Z,9.00
2023-04-30T01:19:38.210Z,9.95
2023-04-30T01:20:11.483Z,9.43
2023-04-30T01:21:01.810Z,10.25
2023-04-30T01:21:34.391Z,10.15
2023-04-30T01:22:21.235Z,10.77
2023-04-30T01:23:02.868Z,10.52
2023-04-30T01:24:00.507Z,10.57
2023-04-30T01:24:49.346Z,9.90
2023-04-30T01:25:52.355Z,9.88
2023-04-30T01:26:46.559Z,11.03
2023-04-30T01:27:42.814Z,9.07
2023-04-30T01:28:16.852Z,10.30
2023-04-30T01:28:51.799Z,10.30
2023-04-30T01:29:24.984Z,10.18
2023-04-30T01:29:56.837Z,10.75
2023-04-30T01:30:30.030Z,10.38
2023-04-30T01:31:01.455Z,10.68
2023-04-30T01:31:32.893Z,11.05
2023-04-30T01:32:04.382Z,10.48
2023-04-30T01:32:35.996Z,11.03
2023-04-30T01:33:07.589Z,11.40
2023-04-30T01:33:39.089Z,10.55
2023-04-30T01:34:10.835Z,9.73
2023-04-30T01:34:42.647Z,10.73
2023-04-30T01:35:14.114Z,10.48
2023-04-30T01:36:00.511Z,10.05
2023-04-30T01:36:57.457Z,9.98
2023-04-30T01:37:52.300Z,9.95
2023-04-30T01:39:00.053Z,9.43
2023-04-30T01:39:59.206Z,9.83
2023-04-30T01:40:59.695Z,9.88
2023-04-30T01:41:34.731Z,9.32
2023-04-30T01:42:22.469Z,9.55
2023-04-30T01:43:17.984Z,10.15
2023-04-30T01:44:17.152Z,9.10
2023-04-30T01:44:58.676Z,8.55
2023-04-30T01:45:32.931Z,9.98
2023-04-30T01:46:31.810Z,10.27
2023-04-30T01:47:11.101Z,8.85
2023-04-30T01:47:53.031Z,9.40
2023-04-30T01:48:46.679Z,8.95
2023-04-30T01:50:02.401Z,8.85
2023-04-30T01:50:59.719Z,8.60
2023-04-30T01:51:40.086Z,9.32
2023-04-30T01:52:31.638Z,9.73
2023-04-30T01:53:07.385Z,9.82
2023-04-30T01:53:42.396Z,10.20
2023-04-30T01:54:29.465Z,9.25
2023-04-30T01:55:08.626Z,9.82
2023-04-30T01:55:55.731Z,8.83
2023-04-30T01:56:41.490Z,9.02
2023-04-30T01:57:28.004Z,9.20
2023-04-30T01:58:09.432Z,8.93
2023-04-30T01:58:40.995Z,9.38
2023-04-30T01:59:15.717Z,9.07
2023-04-30T01:59:47.540Z,9.80
2023-04-30T02:00:19.369Z,9.77
2023-04-30T02:00:50.956Z,10.73
2023-04-30T02:01:31.289Z,10.35
2023-04-30T02:02:04.253Z,9.90
2023-04-30T02:02:35.736Z,10.70
2023-04-30T02:03:07.601Z,10.48
2023-04-30T02:03:39.242Z,11.15
2023-04-30T02:04:11.045Z,10.63
2023-04-30T02:04:42.572Z,10.48
2023-04-30T02:05:14.208Z,10.80
2023-04-30T02:05:45.686Z,10.52
2023-04-30T02:06:17.091Z,10.75
2023-04-30T02:06:48.612Z,10.38
2023-04-30T02:07:35.316Z,10.57
2023-04-30T02:08:06.946Z,10.40
2023-04-30T02:08:38.476Z,10.57
2023-04-30T02:09:10.665Z,10.05
2023-04-30T02:09:42.076Z,11.20
2023-04-30T02:10:13.738Z,10.40
2023-04-30T02:10:45.163Z,9.82
2023-04-30T02:11:16.590Z,10.18
2023-04-30T02:11:48.073Z,10.75
2023-04-30T02:12:19.492Z,9.90
2023-04-30T02:12:54.242Z,10.33
2023-04-30T02:13:25.619Z,10.32
2023-04-30T02:13:57.094Z,8.88
2023-04-30T02:14:28.705Z,10.23
2023-04-30T02:15:00.165Z,10.80
2023-04-30T02:15:31.635Z,10.75
2023-04-30T02:16:04.216Z,10.27
2023-04-30T02:16:35.740Z,10.27
2023-04-30T02:17:07.171Z,10.88
2023-04-30T02:17:38.630Z,10.70
2023-04-30T02:18:10.162Z,9.73
2023-04-30T02:18:41.754Z,9.82
2023-04-30T02:19:13.125Z,9.18
2023-04-30T02:19:44.466Z,9.80
2023-04-30T02:20:15.870Z,9.45
2023-04-30T02:20:47.246Z,9.45
2023-04-30T02:21:18.709Z,10.13
2023-04-30T02:21:50.098Z,10.88
2023-04-30T02:22:21.479Z,9.50
2023-04-30T02:22:53.228Z,9.52
2023-04-30T02:23:24.675Z,9.93
2023-04-30T02:23:56.119Z,10.02
2023-04-30T02:24:27.751Z,9.88
2023-04-30T02:24:59.163Z,9.55
2023-04-30T02:25:30.774Z,9.98
2023-04-30T02:26:03.128Z,10.10
2023-04-30T02:26:34.915Z,9.73
2023-04-30T02:27:06.680Z,9.40
2023-04-30T02:27:38.545Z,9.88
2023-04-30T02:28:09.982Z,9.38
2023-04-30T02:28:42.561Z,9.40
2023-04-30T02:29:13.933Z,9.85
2023-04-30T02:29:45.417Z,8.75
2023-04-30T02:30:17.131Z,9.93
2023-04-30T02:30:48.980Z,10.68
2023-04-30T02:31:20.541Z,10.27
2023-04-30T02:31:51.980Z,11.90
2023-04-30T02:32:26.534Z,10.07
2023-04-30T02:32:57.979Z,9.95
2023-04-30T02:33:29.588Z,9.45
2023-04-30T02:34:00.993Z,9.60
2023-04-30T02:34:32.437Z,10.00
2023-04-30T02:35:04.064Z,10.38
2023-04-30T02:35:35.470Z,10.05
2023-04-30T02:36:06.920Z,9.82
2023-04-30T02:36:38.522Z,9.18
2023-04-30T02:37:10.430Z,9.85
2023-04-30T02:37:41.790Z,9.93
2023-04-30T02:38:13.309Z,10.60
2023-04-30T02:38:44.723Z,10.75
2023-04-30T02:39:16.176Z,9.93
2023-04-30T02:39:47.746Z,10.93
2023-04-30T02:40:19.170Z,9.27
2023-04-30T02:40:50.651Z,10.90
2023-04-30T02:41:22.292Z,11.00
2023-04-30T02:41:53.655Z,9.50
2023-04-30T02:42:25.145Z,9.95
2023-04-30T02:42:56.827Z,10.70
2023-04-30T02:43:28.286Z,10.23
2023-04-30T02:43:59.919Z,10.70
2023-04-30T02:44:31.395Z,10.33
2023-04-30T02:45:02.995Z,11.35
2023-04-30T02:45:34.538Z,11.25
2023-04-30T02:46:06.530Z,11.13
2023-04-30T02:46:38.048Z,10.57
2023-04-30T02:47:09.552Z,9.98
2023-04-30T02:47:41.081Z,9.73
2023-04-30T02:48:13.606Z,10.05
2023-04-30T02:48:45.232Z,10.93
2023-04-30T02:49:17.141Z,10.55
2023-04-30T02:49:48.790Z,10.50
2023-04-30T02:50:20.197Z,10.38
2023-04-30T02:50:51.547Z,9.45
2023-04-30T02:51:22.992Z,10.15
2023-04-30T02:51:54.922Z,9.77
2023-04-30T02:52:26.691Z,10.57
2023-04-30T02:52:58.219Z,9.52
2023-04-30T02:53:29.725Z,9.43
2023-04-30T02:54:01.156Z,9.52
2023-04-30T02:54:32.535Z,9.77
2023-04-30T02:55:04.340Z,8.83
2023-04-30T02:55:35.829Z,10.45
2023-04-30T02:56:08.043Z,9.48
2023-04-30T02:56:39.635Z,10.25
2023-04-30T02:57:11.264Z,10.38
2023-04-30T02:57:42.656Z,9.68
2023-04-30T02:58:14.179Z,10.07
2023-04-30T02:58:45.767Z,10.13
2023-04-30T02:59:17.161Z,9.73
2023-04-30T02:59:48.659Z,10.32
2023-04-30T03:00:20.320Z,9.50
2023-04-30T03:00:51.762Z,9.95
2023-04-30T03:01:23.276Z,10.30
2023-04-30T03:01:54.786Z,9.70
2023-04-30T03:02:26.240Z,9.85
2023-04-30T03:02:57.774Z,10.27
2023-04-30T03:03:29.288Z,10.05
2023-04-30T03:04:00.812Z,9.70
2023-04-30T03:04:32.417Z,10.48
2023-04-30T03:05:04.198Z,10.23
2023-04-30T03:05:35.640Z,10.23
2023-04-30T03:06:07.191Z,10.55
2023-04-30T03:06:38.993Z,10.13
2023-04-30T03:07:10.590Z,10.13
2023-04-30T03:07:42.615Z,10.35
2023-04-30T03:08:13.998Z,9.82
2023-04-30T03:08:45.353Z,10.52
2023-04-30T03:09:17.418Z,9.88
2023-04-30T03:09:48.830Z,10.88
2023-04-30T03:10:20.318Z,9.38
2023-04-30T03:10:52.293Z,10.80
2023-04-30T03:11:23.721Z,9.80
2023-04-30T03:11:55.481Z,10.85
2023-04-30T03:12:26.952Z,9.52
2023-04-30T03:12:58.449Z,10.88
2023-04-30T03:13:29.903Z,9.10
2023-04-30T03:14:01.405Z,9.80
2023-04-30T03:14:32.898Z,9.98
2023-04-30T03:15:04.852Z,10.45
2023-04-30T03:15:36.305Z,9.07
2023-04-30T03:16:07.686Z,9.10
2023-04-30T03:16:39.164Z,11.13
2023-04-30T03:17:10.731Z,9.48
2023-04-30T03:17:44.527Z,10.27
2023-04-30T03:18:17.291Z,10.20
2023-04-30T03:18:49.472Z,10.60
2023-04-30T03:19:25.332Z,10.35
2023-04-30T03:19:56.945Z,10.13
2023-04-30T03:20:28.616Z,10.45
2023-04-30T03:20:59.962Z,9.70
2023-04-30T03:21:31.537Z,10.10
2023-04-30T03:22:03.269Z,9.23
2023-04-30T03:22:34.612Z,9.60
2023-04-30T03:23:05.994Z,9.13
2023-04-30T03:23:37.681Z,9.88
2023-04-30T03:24:09.152Z,9.82
2023-04-30T03:24:40.604Z,9.80
2023-04-30T03:25:12.149Z,10.00
2023-04-30T03:25:43.689Z,10.45
2023-04-30T03:26:15.162Z,10.02
2023-04-30T03:26:47.272Z,9.47
2023-04-30T03:27:18.692Z,9.73
2023-04-30T03:27:50.087Z,9.85
2023-04-30T03:28:21.662Z,9.95
2023-04-30T03:28:55.137Z,9.60
2023-04-30T03:29:26.753Z,9.73
2023-04-30T03:29:58.161Z,8.88
2023-04-30T03:30:29.990Z,8.90
2023-04-30T03:31:05.184Z,9.15
2023-04-30T03:31:36.877Z,9.85
2023-04-30T03:32:08.502Z,9.60
2023-04-30T03:32:39.915Z,8.95
2023-04-30T03:33:11.698Z,9.43
2023-04-30T03:33:43.199Z,9.32
2023-04-30T03:34:14.835Z,9.43
2023-04-30T03:34:46.633Z,9.75
2023-04-30T03:35:19.074Z,9.00
2023-04-30T03:35:51.787Z,10.00
2023-04-30T03:36:23.193Z,10.32
2023-04-30T03:36:54.626Z,9.75
2023-04-30T03:37:26.154Z,10.23
2023-04-30T03:37:57.840Z,9.40
2023-04-30T03:38:29.286Z,9.50
2023-04-30T03:39:01.562Z,9.00
2023-04-30T03:39:32.997Z,9.82
2023-04-30T03:40:04.934Z,8.48
2023-04-30T03:40:36.455Z,8.68
2023-04-30T03:41:07.861Z,8.93
2023-04-30T03:41:39.224Z,10.02
2023-04-30T03:42:10.660Z,9.13
2023-04-30T03:42:42.093Z,8.67
2023-04-30T03:43:13.595Z,9.52
2023-04-30T03:43:45.112Z,9.38
2023-04-30T03:44:16.515Z,9.38
2023-04-30T03:44:48.008Z,9.35
2023-04-30T03:45:19.605Z,9.50
2023-04-30T03:45:51.164Z,9.70
2023-04-30T03:46:22.828Z,10.00
2023-04-30T03:46:54.298Z,9.07
2023-04-30T03:47:25.921Z,9.23
2023-04-30T03:47:57.749Z,8.63
2023-04-30T03:48:29.485Z,10.70
2023-04-30T03:49:00.855Z,9.25
2023-04-30T03:49:32.254Z,9.45
2023-04-30T03:50:04.169Z,10.07
2023-04-30T03:50:35.602Z,9.65
2023-04-30T03:51:06.999Z,8.65
2023-04-30T03:51:42.050Z,9.43
2023-04-30T03:52:13.678Z,9.73
2023-04-30T03:52:46.052Z,9.35
2023-04-30T03:53:17.462Z,8.70
2023-04-30T03:53:48.881Z,8.52
2023-04-30T03:54:20.683Z,9.20
2023-04-30T03:54:52.150Z,10.05
2023-04-30T03:55:23.661Z,9.85
2023-04-30T03:55:55.833Z,9.50
2023-04-30T03:56:27.502Z,9.98
2023-04-30T03:56:59.105Z,8.70
2023-04-30T03:57:30.850Z,10.18
2023-04-30T03:58:02.396Z,8.93
2023-04-30T03:58:33.774Z,10.60
2023-04-30T03:59:06.158Z,9.57
2023-04-30T03:59:37.935Z,10.15
2023-04-30T04:00:13.548Z,9.90
2023-04-30T04:00:45.781Z,8.88
2023-04-30T04:01:17.284Z,8.45
2023-04-30T04:01:48.824Z,8.75
2023-04-30T04:02:52.945Z,9.57
2023-04-30T04:03:24.518Z,9.55
2023-04-30T04:03:56.152Z,9.80
2023-04-30T04:04:27.726Z,9.13
2023-04-30T04:04:59.548Z,8.90
2023-04-30T04:05:31.225Z,9.35
2023-04-30T04:06:03.920Z,8.77
2023-04-30T04:06:35.518Z,8.93
2023-04-30T04:07:08.113Z,8.95
2023-04-30T04:07:39.666Z,9.70
2023-04-30T04:08:11.083Z,9.82
2023-04-30T04:08:43.702Z,10.05
2023-04-30T04:09:15.271Z,9.57
2023-04-30T04:09:46.688Z,9.38
2023-04-30T04:10:18.130Z,9.52
2023-04-30T04:10:49.534Z,9.50
2023-04-30T04:11:21.108Z,9.07
2023-04-30T04:11:52.698Z,8.82
2023-04-30T04:12:24.153Z,8.65
2023-04-30T04:12:55.709Z,9.02
2023-04-30T04:13:27.151Z,8.43
2023-04-30T04:13:58.551Z,8.70
2023-04-30T04:14:29.926Z,9.30
2023-04-30T04:15:01.428Z,9.52
2023-04-30T04:15:33.913Z,8.43
2023-04-30T04:16:05.613Z,8.15
2023-04-30T04:16:37.819Z,9.07
2023-04-30T04:17:09.388Z,9.13
2023-04-30T04:17:41.023Z,9.43
2023-04-30T04:18:12.660Z,8.20
2023-04-30T04:18:44.365Z,8.15
2023-04-30T04:19:15.774Z,8.55
2023-04-30T04:19:47.201Z,7.97
2023-04-30T04:20:18.745Z,8.70
2023-04-30T04:20:50.478Z,8.48
2023-04-30T04:21:21.916Z,9.15
2023-04-30T04:21:53.376Z,8.70
2023-04-30T04:22:24.737Z,8.45
2023-04-30T04:22:57.075Z,9.07
2023-04-30T04:23:28.811Z,8.50
2023-04-30T04:24:02.762Z,8.88
2023-04-30T04:24:34.205Z,8.20
2023-04-30T04:25:07.036Z,8.87
2023-04-30T04:25:39.345Z,9.20
2023-04-30T04:26:10.973Z,8.70
2023-04-30T04:26:42.529Z,8.15
2023-04-30T04:27:13.919Z,8.93
2023-04-30T04:27:45.837Z,8.77
2023-04-30T04:28:17.200Z,8.43
2023-04-30T04:28:48.649Z,9.25
2023-04-30T04:29:20.047Z,9.88
2023-04-30T04:29:52.154Z,8.82
2023-04-30T04:30:23.816Z,8.93
2023-04-30T04:30:55.436Z,9.20
2023-04-30T04:31:27.459Z,9.05
2023-04-30T04:32:02.653Z,8.73
2023-04-30T04:32:41.865Z,8.52
2023-04-30T04:33:13.443Z,8.73
2023-04-30T04:33:44.846Z,8.13
2023-04-30T04:34:16.716Z,8.18
2023-04-30T04:34:49.452Z,8.88
2023-04-30T04:35:21.560Z,8.85
2023-04-30T04:35:53.020Z,8.73
2023-04-30T04:36:28.671Z,8.80
2023-04-30T04:37:00.098Z,8.52
2023-04-30T04:37:31.456Z,8.13
2023-04-30T04:38:02.977Z,8.93
2023-04-30T04:38:34.384Z,8.68
2023-04-30T04:39:06.171Z,8.40
2023-04-30T04:39:37.623Z,9.23
2023-04-30T04:40:10.610Z,8.50
2023-04-30T04:40:42.538Z,8.38
2023-04-30T04:41:13.928Z,9.80
2023-04-30T04:41:45.376Z,9.93
2023-04-30T04:42:17.541Z,8.02
2023-04-30T04:42:52.022Z,8.73
2023-04-30T04:43:23.427Z,9.93
2023-04-30T04:43:54.923Z,8.25
2023-04-30T04:44:27.249Z,8.43
2023-04-30T04:44:58.619Z,8.98
2023-04-30T04:45:30.046Z,8.48
2023-04-30T04:46:01.547Z,8.80
2023-04-30T04:46:33.211Z,8.80
2023-04-30T04:47:04.588Z,8.27
2023-04-30T04:47:36.637Z,9.98
2023-04-30T04:48:08.116Z,9.80
2023-04-30T04:48:39.498Z,8.88
2023-04-30T04:49:11.046Z,8.80
2023-04-30T04:49:43.269Z,8.50
2023-04-30T04:50:14.719Z,8.75
2023-04-30T04:50:46.155Z,8.13
2023-04-30T04:51:17.611Z,8.80
2023-04-30T04:51:49.026Z,8.53
2023-04-30T04:52:20.430Z,7.95
2023-04-30T04:52:51.809Z,7.97
2023-04-30T04:53:24.213Z,9.07
2023-04-30T04:53:55.717Z,8.23
2023-04-30T04:54:27.149Z,8.25
2023-04-30T04:54:58.554Z,8.43
2023-04-30T04:55:30.032Z,8.65
2023-04-30T04:56:01.459Z,8.32
2023-04-30T04:56:32.895Z,9.45
2023-04-30T04:57:04.353Z,8.33
2023-04-30T04:57:35.903Z,8.73
2023-04-30T04:58:07.654Z,7.93
2023-04-30T04:58:39.962Z,8.88
2023-04-30T04:59:11.335Z,9.23
2023-04-30T04:59:42.736Z,8.30
2023-04-30T05:00:14.340Z,9.07
2023-04-30T05:00:45.739Z,9.00
2023-04-30T05:01:17.537Z,9.20
2023-04-30T05:01:49.096Z,8.63
2023-04-30T05:02:21.255Z,9.97
2023-04-30T05:02:53.661Z,8.43
2023-04-30T05:03:25.193Z,8.73
2023-04-30T05:03:56.756Z,8.20
2023-04-30T05:04:28.298Z,8.95
2023-04-30T05:05:00.295Z,8.90
2023-04-30T05:05:31.684Z,8.43
2023-04-30T05:06:04.018Z,8.02
2023-04-30T05:06:36.057Z,8.85
2023-04-30T05:07:08.093Z,8.00
2023-04-30T05:07:40.239Z,8.63
2023-04-30T05:08:11.858Z,9.10
2023-04-30T05:08:43.254Z,8.23
2023-04-30T05:09:15.019Z,9.00
2023-04-30T05:09:47.265Z,7.85
2023-04-30T05:10:18.643Z,8.98
2023-04-30T05:10:50.162Z,8.25
2023-04-30T05:11:22.183Z,8.65
2023-04-30T05:11:53.790Z,8.43
2023-04-30T05:12:25.349Z,10.00
2023-04-30T05:12:56.787Z,9.77
2023-04-30T05:13:28.221Z,8.95
2023-04-30T05:13:59.663Z,8.73
2023-04-30T05:14:31.003Z,8.73
2023-04-30T05:15:03.032Z,9.43
2023-04-30T05:15:34.447Z,8.75
2023-04-30T05:16:06.275Z,8.95
2023-04-30T05:16:37.749Z,8.68
2023-04-30T05:17:09.393Z,9.40
2023-04-30T05:17:40.916Z,8.35
2023-04-30T05:18:12.319Z,8.70
2023-04-30T05:18:43.677Z,9.77
2023-04-30T05:19:15.409Z,9.07
2023-04-30T05:19:48.855Z,9.38
2023-04-30T05:20:20.222Z,9.75
2023-04-30T05:20:51.631Z,9.75
2023-04-30T05:21:23.538Z,9.27
2023-04-30T05:21:54.900Z,9.70
2023-04-30T05:22:26.300Z,9.40
2023-04-30T05:22:58.008Z,8.73
2023-04-30T05:23:29.447Z,9.57
2023-04-30T05:24:00.871Z,9.65
2023-04-30T05:24:32.251Z,10.00
2023-04-30T05:25:04.222Z,9.65
2023-04-30T05:25:36.621Z,9.60
2023-04-30T05:26:08.013Z,9.65
2023-04-30T05:26:39.429Z,9.18
2023-04-30T05:27:11.023Z,8.93
2023-04-30T05:27:42.435Z,9.40
2023-04-30T05:28:13.806Z,9.30
2023-04-30T05:28:45.498Z,8.77
2023-04-30T05:29:17.031Z,8.70
2023-04-30T05:29:48.424Z,9.70
2023-04-30T05:30:19.928Z,8.40
2023-04-30T05:30:52.016Z,9.60
2023-04-30T05:31:23.724Z,8.52
2023-04-30T05:31:55.226Z,9.05
2023-04-30T05:32:27.694Z,9.38
2023-04-30T05:32:59.242Z,9.48
2023-04-30T05:33:30.737Z,9.40
2023-04-30T05:34:02.308Z,9.20
2023-04-30T05:34:33.697Z,8.95
2023-04-30T05:35:05.780Z,9.10
2023-04-30T05:35:37.184Z,8.90
2023-04-30T05:36:10.824Z,8.55
2023-04-30T05:36:44.196Z,8.98
2023-04-30T05:37:17.591Z,7.97
2023-04-30T05:37:49.036Z,8.43
2023-04-30T05:38:20.692Z,9.13
2023-04-30T05:38:52.050Z,8.82
2023-04-30T05:39:23.622Z,8.67
2023-04-30T05:39:55.559Z,9.07
2023-04-30T05:40:27.272Z,9.02
2023-04-30T05:40:58.632Z,10.07
2023-04-30T05:41:30.257Z,8.93
2023-04-30T05:42:02.475Z,8.75
2023-04-30T05:42:34.476Z,8.90
2023-04-30T05:43:06.062Z,8.88
2023-04-30T05:43:37.719Z,9.63
2023-04-30T05:44:09.135Z,8.25
2023-04-30T05:44:41.451Z,8.77
2023-04-30T05:45:14.693Z,8.75
2023-04-30T05:45:46.187Z,7.72
2023-04-30T05:46:17.646Z,8.63
2023-04-30T05:46:49.039Z,8.70
2023-04-30T05:47:20.702Z,8.80
2023-04-30T05:47:52.576Z,8.82
2023-04-30T05:48:24.096Z,8.32
2023-04-30T05:48:55.573Z,8.85
2023-04-30T05:49:27.392Z,8.88
2023-04-30T05:49:59.087Z,8.37
2023-04-30T05:50:30.559Z,7.72
2023-04-30T05:51:02.362Z,7.95
2023-04-30T05:51:33.822Z,9.15
2023-04-30T05:52:05.732Z,8.20
2023-04-30T05:52:37.145Z,9.02
2023-04-30T05:53:08.929Z,8.40
2023-04-30T05:53:40.492Z,8.88
2023-04-30T05:54:11.902Z,8.10
2023-04-30T05:54:43.870Z,9.98
2023-04-30T05:55:15.486Z,8.77
2023-04-30T05:55:46.917Z,8.10
2023-04-30T05:56:18.262Z,8.50
2023-04-30T05:56:49.664Z,8.45
2023-04-30T05:57:21.120Z,8.85
2023-04-30T05:57:52.549Z,9.48
2023-04-30T05:58:24.000Z,9.38
2023-04-30T05:58:55.401Z,9.00
2023-04-30T05:59:26.945Z,8.68
2023-04-30T05:59:58.380Z,9.63
2023-04-30T06:00:29.884Z,10.17
2023-04-30T06:01:01.816Z,9.60
2023-04-30T06:01:33.955Z,9.20
2023-04-30T06:02:05.483Z,9.52
2023-04-30T06:02:37.056Z,9.25
2023-04-30T06:03:08.480Z,9.13
2023-04-30T06:03:39.943Z,9.02
2023-04-30T06:04:11.749Z,9.07
2023-04-30T06:04:43.462Z,8.98
2023-04-30T06:05:16.287Z,8.55
2023-04-30T06:05:48.007Z,8.17
2023-04-30T06:06:19.506Z,8.70
2023-04-30T06:06:51.096Z,8.18
2023-04-30T06:07:22.912Z,8.68
2023-04-30T06:07:54.441Z,8.57
2023-04-30T06:08:25.935Z,9.00
2023-04-30T06:08:57.991Z,8.02
2023-04-30T06:09:29.377Z,8.40
2023-04-30T06:10:00.912Z,9.52
2023-04-30T06:10:32.415Z,8.65
2023-04-30T06:11:05.124Z,9.03
2023-04-30T06:11:37.363Z,9.20
2023-04-30T06:12:09.006Z,8.73
2023-04-30T06:12:40.859Z,8.43
2023-04-30T06:13:12.468Z,8.82
2023-04-30T06:13:43.932Z,8.38
2023-04-30T06:14:15.646Z,8.48
2023-04-30T06:14:48.258Z,9.20
2023-04-30T06:15:19.812Z,9.18
2023-04-30T06:15:51.368Z,8.52
2023-04-30T06:16:23.724Z,8.60
2023-04-30T06:16:55.282Z,8.70
2023-04-30T06:17:26.793Z,8.30
2023-04-30T06:17:58.658Z,7.55
2023-04-30T06:18:30.231Z,8.75
2023-04-30T06:19:01.727Z,7.97
2023-04-30T06:19:33.290Z,8.70
2023-04-30T06:20:07.166Z,8.90
2023-04-30T06:20:38.816Z,8.82
2023-04-30T06:21:10.556Z,7.78
2023-04-30T06:21:43.847Z,8.60
2023-04-30T06:22:15.307Z,7.47
2023-04-30T06:22:47.014Z,8.32
2023-04-30T06:23:18.561Z,8.32
2023-04-30T06:23:49.975Z,8.18
2023-04-30T06:24:21.361Z,8.80
2023-04-30T06:24:52.902Z,8.07
2023-04-30T06:25:24.335Z,8.80
2023-04-30T06:25:55.946Z,8.57
2023-04-30T06:26:27.724Z,8.75
2023-04-30T06:26:59.282Z,8.37
2023-04-30T06:27:32.494Z,7.95
2023-04-30T06:28:04.197Z,8.13
2023-04-30T06:28:35.724Z,8.30
2023-04-30T06:29:07.054Z,8.35
2023-04-30T06:29:38.413Z,7.97
2023-04-30T06:30:10.328Z,8.98
2023-04-30T06:30:41.863Z,8.02
2023-04-30T06:31:13.540Z,8.10
2023-04-30T06:31:45.044Z,9.30
2023-04-30T06:32:16.878Z,8.90
2023-04-30T06:32:48.460Z,9.35
2023-04-30T06:33:19.869Z,8.73
2023-04-30T06:33:51.323Z,8.68
2023-04-30T06:34:22.750Z,8.45
2023-04-30T06:34:55.679Z,8.90
2023-04-30T06:35:27.217Z,8.35
2023-04-30T06:35:58.733Z,8.52
2023-04-30T06:36:30.107Z,8.75
2023-04-30T06:37:01.501Z,8.60
2023-04-30T06:37:37.760Z,8.23
2023-04-30T06:38:09.430Z,7.75
2023-04-30T06:38:41.577Z,9.27
2023-04-30T06:39:16.013Z,8.27
2023-04-30T06:39:47.435Z,7.72
2023-04-30T06:40:19.080Z,8.02
2023-04-30T06:40:50.491Z,8.85
2023-04-30T06:41:22.211Z,8.43
2023-04-30T06:41:53.578Z,8.50
2023-04-30T06:42:24.968Z,8.63
2023-04-30T06:42:56.609Z,8.83
2023-04-30T06:43:27.970Z,8.40
2023-04-30T06:43:59.450Z,8.20
2023-04-30T06:44:30.921Z,8.30
2023-04-30T06:45:02.741Z,8.65
2023-04-30T06:45:34.142Z,8.32
2023-04-30T06:46:06.736Z,7.75
2023-04-30T06:46:38.247Z,8.05
2023-04-30T06:47:09.688Z,8.68
2023-04-30T06:47:42.844Z,8.90
2023-04-30T06:48:14.383Z,8.67
2023-04-30T06:48:45.999Z,8.32
2023-04-30T06:49:17.462Z,8.63
2023-04-30T06:49:49.336Z,8.57
2023-04-30T06:50:21.845Z,8.30
2023-04-30T06:50:53.286Z,8.35
2023-04-30T06:51:24.671Z,8.38
2023-04-30T06:51:58.328Z,7.90
2023-04-30T06:52:30.637Z,8.07
2023-04-30T06:53:02.901Z,8.85
2023-04-30T06:53:34.293Z,8.10
2023-04-30T06:54:06.142Z,8.18
2023-04-30T06:54:37.596Z,8.10
2023-04-30T06:55:09.452Z,8.15
2023-04-30T06:55:42.440Z,8.52
2023-04-30T06:56:13.824Z,8.25
2023-04-30T06:56:45.560Z,8.68
2023-04-30T06:57:16.941Z,7.90
2023-04-30T06:57:48.537Z,8.30
2023-04-30T06:58:19.974Z,8.25
2023-04-30T06:58:51.594Z,8.50
2023-04-30T06:59:23.018Z,8.07
2023-04-30T06:59:55.838Z,8.80
2023-04-30T07:00:27.743Z,8.15
2023-04-30T07:00:59.151Z,8.48
2023-04-30T07:01:30.738Z,6.82
2023-04-30T07:02:02.203Z,8.00
2023-04-30T07:02:33.816Z,7.60
2023-04-30T07:03:05.459Z,8.23
2023-04-30T07:03:37.279Z,7.47
2023-04-30T07:04:08.721Z,7.67
2023-04-30T07:04:40.127Z,7.85
2023-04-30T07:05:12.130Z,8.93
2023-04-30T07:05:44.178Z,8.27
2023-04-30T07:06:15.956Z,8.30
2023-04-30T07:06:47.413Z,7.78
2023-04-30T07:07:18.903Z,7.82
2023-04-30T07:07:50.604Z,7.82
2023-04-30T07:08:22.421Z,8.13
2023-04-30T07:08:53.837Z,7.45
2023-04-30T07:09:25.326Z,6.83
2023-04-30T07:09:57.096Z,7.18
2023-04-30T07:10:29.095Z,8.10
2023-04-30T07:11:00.579Z,8.20
2023-04-30T07:11:32.172Z,7.70
2023-04-30T07:12:03.788Z,7.35
2023-04-30T07:12:35.383Z,7.63
2023-04-30T07:13:08.238Z,7.63
2023-04-30T07:13:39.740Z,7.63
2023-04-30T07:14:11.393Z,7.78